Covel, West Virginia
Current Conditions -  °F | °C
As of 1:52 PM on Friday 21 Nov 2014 (Local Time) from KBLF Reporting Station
Clear Clear  
Wind Chill: 27°   Ceiling: Unl
Heat Index: 35°   Visibility: 10mi
Dew Point:   Wind: 12mph
Humidity: 30%   Direction: 290°WNW
Pressure: 30.37"   Gusts: 20mph
Location:  37.49°N, 81.32°W
Report Text: KBLF 211852Z AUTO 29010G17KT 260V330 10SM CLR 02/M14 A3037 RMK AO2 SLP305 T00171144
Loading
Personal Weather Stations






























Interactive Weather Map New forecast layout! Learn more

10-Day Weather Forecast

Advertisements
Track Severe Weather on mobile